Terminal Aerodrome Forecast
Issued by NWS Atlanta, GA

Home | Current Version | Previous Version | Text Only | Print | Product List | Glossary On
Versions: 1 2 3 4 5 6 7 8 9 10 11 12 13 14 15 16 17 18 19 20 21 22 23
000
FTUS42 KFFC 261730
TAFMCN
TAF
KMCN 261730Z 2618/2718 28012KT P6SM SKC
     FM262000 28012KT P6SM SCT080
     FM262200 25006KT P6SM SCT250
     FM271300 30012KT P6SM SKC=

USA.gov is the U.S. government's official web portal to all federal, state and local government web resources and services.